Time;durP1;ratioP1;P1;durP2;ratioP2;P2;SDS_P1;SDS_P2;PMS_P1;PMS_P2;Temp;Humidity;BMP_temperature;BMP_pressure;BME280_temperature;BME280_humidity;BME280_pressure;Samples;Min_cycle;Max_cycle;Signal;HPM_P1;HPM_P2
2022/05/25 00:03:12;;;;;;;3.05;1.20;;;;;;;10.78;62.04;99609.50;10429429;28;20678;-78
2022/05/25 00:08:14;;;;;;;3.00;1.20;;;;;;;10.79;61.97;99612.03;10426725;28;20617;-79
2022/05/25 00:13:16;;;;;;;2.30;1.30;;;;;;;10.77;61.99;99616.50;10425948;28;20512;-78
2022/05/25 00:18:19;;;;;;;3.30;1.30;;;;;;;10.61;62.23;99623.69;10430716;28;20053;-78
2022/05/25 00:23:21;;;;;;;5.75;1.67;;;;;;;10.57;62.17;99618.75;10427128;28;20127;-78
2022/05/25 00:28:25;;;;;;;3.42;1.42;;;;;;;10.44;62.46;99624.75;10429450;28;20709;-78
2022/05/25 00:34:01;;;;;;;3.97;1.40;;;;;;;10.42;62.77;99633.63;10430153;28;20145;-77
2022/05/25 00:39:05;;;;;;;2.17;1.25;;;;;;;10.43;62.41;99630.09;10428866;28;20098;-80
2022/05/25 00:44:08;;;;;;;3.65;1.40;;;;;;;10.24;62.79;99625.19;10425874;28;20068;-79
2022/05/25 00:49:11;;;;;;;2.90;1.30;;;;;;;10.29;63.07;99640.59;10427323;28;20085;-79
2022/05/25 00:54:24;;;;;;;3.30;1.35;;;;;;;10.33;63.54;99647.31;10419577;28;20136;-79
2022/05/25 00:59:31;;;;;;;3.30;1.30;;;;;;;10.52;63.18;99642.59;10430487;28;20134;-79
2022/05/25 01:04:33;;;;;;;2.70;1.20;;;;;;;10.74;62.54;99647.28;10437281;28;20094;-79
2022/05/25 01:09:55;;;;;;;3.83;1.30;;;;;;;10.66;62.64;99644.31;10438595;28;21037;-79
2022/05/25 01:15:03;;;;;;;3.22;1.23;;;;;;;10.77;62.58;99645.28;10437490;28;20106;-79
2022/05/25 01:20:08;;;;;;;3.80;1.35;;;;;;;10.84;62.14;99641.34;10436967;28;20151;-79
2022/05/25 01:25:44;;;;;;;2.80;1.40;;;;;;;10.68;62.05;99645.06;10436962;28;20068;-79
2022/05/25 01:30:51;;;;;;;5.55;1.30;;;;;;;10.33;62.36;99652.53;10437096;28;20118;-79
2022/05/25 01:36:06;;;;;;;3.75;1.20;;;;;;;10.22;63.13;99660.19;10437801;28;20053;-79
2022/05/25 01:41:24;;;;;;;4.65;1.42;;;;;;;10.17;62.75;99667.50;10434972;28;20049;-79
2022/05/25 01:46:33;;;;;;;3.03;1.40;;;;;;;10.17;62.66;99672.72;10437020;28;20387;-79
2022/05/25 01:51:50;;;;;;;3.08;1.35;;;;;;;10.16;62.92;99674.50;10426455;28;20060;-79
2022/05/25 01:56:57;;;;;;;1.70;1.30;;;;;;;10.14;62.91;99680.75;10434022;28;20452;-79
2022/05/25 02:07:39;;;;;;;2.50;1.40;;;;;;;9.96;63.26;99679.25;10441717;28;20057;-79
2022/05/25 02:12:44;;;;;;;2.53;1.40;;;;;;;9.89;62.87;99680.59;10441286;28;20045;-79
2022/05/25 02:17:59;;;;;;;2.45;1.40;;;;;;;9.83;63.40;99673.94;10437921;28;20091;-79
2022/05/25 02:23:18;;;;;;;3.63;1.25;;;;;;;9.79;63.20;99680.28;10440959;28;20067;-79
2022/05/25 02:28:30;;;;;;;4.85;1.60;;;;;;;9.59;63.40;99675.38;10435129;28;20147;-79
2022/05/25 02:33:38;;;;;;;6.03;1.80;;;;;;;9.54;63.56;99675.66;10439717;28;20114;-79
2022/05/25 02:38:41;;;;;;;3.22;1.67;;;;;;;9.51;63.31;99680.22;10436473;28;20469;-79
2022/05/25 02:43:44;;;;;;;3.30;1.50;;;;;;;9.35;63.38;99685.53;10437419;28;20053;-79
2022/05/25 02:48:46;;;;;;;4.47;1.60;;;;;;;9.30;63.43;99700.59;10439971;28;20049;-79
2022/05/25 02:53:48;;;;;;;2.60;1.50;;;;;;;9.20;63.74;99694.22;10437713;28;20088;-79
2022/05/25 02:58:50;;;;;;;5.88;1.58;;;;;;;9.17;63.90;99697.03;10439371;28;21070;-79
2022/05/25 03:03:52;;;;;;;5.05;1.60;;;;;;;9.19;64.02;99695.16;10437349;28;20063;-79
2022/05/25 03:08:55;;;;;;;2.25;1.45;;;;;;;9.14;63.83;99699.78;10430613;28;20122;-79
2022/05/25 03:13:57;;;;;;;1.75;1.40;;;;;;;9.02;64.39;99713.53;10432007;28;20146;-79
2022/05/25 03:19:01;;;;;;;10.70;1.80;;;;;;;8.87;64.78;99718.78;10432464;28;20174;-79
2022/05/25 03:24:03;;;;;;;9.73;2.30;;;;;;;8.77;64.71;99708.88;10432065;28;20870;-79
2022/05/25 03:29:05;;;;;;;2.33;1.50;;;;;;;8.84;64.60;99720.66;10432053;28;20084;-79
2022/05/25 03:34:07;;;;;;;3.17;1.60;;;;;;;8.76;64.70;99722.00;10432530;28;20126;-79
2022/05/25 03:39:09;;;;;;;4.85;1.90;;;;;;;8.81;64.78;99728.63;10432496;28;20049;-79
2022/05/25 03:44:13;;;;;;;3.80;2.03;;;;;;;8.93;64.97;99734.94;10432336;28;20110;-79
2022/05/25 03:49:16;;;;;;;3.53;1.88;;;;;;;9.04;64.39;99740.38;10434095;28;20543;-78
2022/05/25 03:54:17;;;;;;;3.38;1.48;;;;;;;9.13;64.40;99741.63;10433921;28;20088;-79
2022/05/25 03:59:19;;;;;;;3.63;1.50;;;;;;;9.18;64.21;99734.41;10431483;28;20079;-79
2022/05/25 04:04:21;;;;;;;5.45;1.42;;;;;;;9.22;64.19;99743.72;10429491;28;20430;-78
2022/05/25 04:09:23;;;;;;;113.57;3.85;;;;;;;9.10;64.22;99755.69;10432386;28;20525;-79
2022/05/25 04:14:25;;;;;;;209.02;5.65;;;;;;;8.90;64.50;99755.97;10433044;28;20099;-79
2022/05/25 04:19:27;;;;;;;524.55;13.57;;;;;;;8.89;64.59;99764.72;10425751;28;20048;-78
2022/05/25 04:24:30;;;;;;;3.22;1.70;;;;;;;9.10;64.46;99773.94;10430901;28;20084;-78
2022/05/25 04:29:36;;;;;;;13.55;2.10;;;;;;;10.95;60.34;99758.41;10429523;28;20079;-78
2022/05/25 04:34:39;;;;;;;7.55;1.60;;;;;;;10.54;60.75;99774.06;10437358;28;20133;-79
2022/05/25 04:39:41;;;;;;;27.90;2.03;;;;;;;10.30;61.37;99780.78;10437927;28;20644;-79
2022/05/25 04:44:43;;;;;;;171.52;5.47;;;;;;;10.64;60.53;99774.34;10437099;28;20049;-79
2022/05/25 04:49:46;;;;;;;2.60;1.60;;;;;;;12.38;56.92;99771.44;10437243;28;21074;-79
2022/05/25 04:54:49;;;;;;;2.85;1.50;;;;;;;12.83;55.75;99779.56;10436946;28;20465;-79
2022/05/25 04:59:59;;;;;;;3.15;1.30;;;;;;;15.63;50.35;99774.41;10439804;28;20138;-79
2022/05/25 05:05:02;;;;;;;1.97;1.30;;;;;;;15.92;48.82;99778.06;10446335;28;20095;-79
2022/05/25 05:10:04;;;;;;;2.60;1.40;;;;;;;16.26;48.04;99785.78;10437911;28;20118;-79
2022/05/25 05:15:08;;;;;;;3.00;1.50;;;;;;;19.56;42.10;99783.22;10435999;28;20056;-79
2022/05/25 05:20:11;;;;;;;3.45;1.40;;;;;;;21.52;38.47;99768.81;10438726;28;20049;-78
2022/05/25 05:25:12;;;;;;;2.25;1.30;;;;;;;21.88;36.64;99783.47;10435958;28;20076;-78
2022/05/25 05:30:18;;;;;;;1.73;1.17;;;;;;;19.04;40.27;99792.78;10432611;28;20045;-79
2022/05/25 05:35:20;;;;;;;3.63;1.35;;;;;;;16.87;44.63;99805.94;10434828;28;20139;-79
2022/05/25 05:40:22;;;;;;;4.53;1.30;;;;;;;15.67;47.21;99810.13;10427063;28;20075;-79
2022/05/25 05:45:29;;;;;;;1.92;1.30;;;;;;;14.86;49.63;99803.59;10447268;28;20055;-78
2022/05/25 05:50:34;;;;;;;3.80;1.60;;;;;;;14.41;50.76;99816.72;10430833;28;20069;-78
2022/05/25 05:55:38;;;;;;;1.38;1.20;;;;;;;14.16;52.14;99824.00;10429969;28;20130;-78
2022/05/25 06:00:41;;;;;;;2.78;1.40;;;;;;;14.01;52.74;99833.88;10429816;28;20053;-79
2022/05/25 06:05:44;;;;;;;4.22;1.33;;;;;;;14.01;52.92;99838.28;10428062;28;20053;-79
2022/05/25 06:10:46;;;;;;;2.63;1.25;;;;;;;13.93;53.61;99830.97;10430408;28;20053;-77
2022/05/25 06:21:11;;;;;;;2.70;1.45;;;;;;;14.16;53.80;99848.50;10417795;28;20159;-78
2022/05/25 06:26:15;;;;;;;2.78;1.40;;;;;;;14.24;53.57;99856.66;10428077;28;20120;-78
2022/05/25 06:31:17;;;;;;;5.60;1.42;;;;;;;14.33;53.33;99850.69;10426793;28;20796;-78
2022/05/25 06:36:22;;;;;;;1.80;1.27;;;;;;;14.39;52.89;99842.31;10428392;28;20103;-78
2022/05/25 06:41:25;;;;;;;3.58;1.40;;;;;;;14.61;52.83;99849.44;10426249;28;20144;-77
2022/05/25 06:46:27;;;;;;;3.40;1.40;;;;;;;14.86;52.29;99854.44;10428805;28;20096;-78
2022/05/25 06:51:33;;;;;;;4.28;1.25;;;;;;;15.13;51.87;99857.53;10429410;28;20110;-77
2022/05/25 06:56:41;;;;;;;3.15;1.40;;;;;;;15.14;51.57;99856.56;10420635;28;20055;-77
2022/05/25 07:01:44;;;;;;;4.70;1.67;;;;;;;15.15;51.73;99857.41;10423697;28;20520;-78
2022/05/25 07:06:47;;;;;;;3.25;1.30;;;;;;;15.35;51.14;99864.56;10424026;28;20053;-78
2022/05/25 07:11:54;;;;;;;4.60;1.48;;;;;;;15.71;50.32;99873.97;10428260;28;20081;-77
2022/05/25 07:16:58;;;;;;;5.65;1.40;;;;;;;16.02;50.32;99868.66;10429329;28;20213;-78
2022/05/25 07:22:00;;;;;;;3.00;1.38;;;;;;;16.34;49.55;99873.06;10421995;28;20049;-78
2022/05/25 07:27:02;;;;;;;3.83;1.30;;;;;;;16.78;49.14;99878.06;10416381;28;20094;-78
2022/05/25 07:32:09;;;;;;;2.53;1.35;;;;;;;19.12;44.62;99877.69;10418533;28;20124;-78
2022/05/25 07:37:18;;;;;;;3.40;1.33;;;;;;;20.90;40.21;99873.84;10423046;28;20056;-78
2022/05/25 07:42:21;;;;;;;5.20;1.42;;;;;;;22.78;38.56;99866.81;10422181;28;20095;-79
2022/05/25 07:47:25;;;;;;;3.67;1.50;;;;;;;23.80;35.79;99867.53;10422989;28;20514;-78
2022/05/25 07:52:30;;;;;;;4.15;1.30;;;;;;;23.93;34.44;99860.56;10422468;28;20175;-78
2022/05/25 07:57:32;;;;;;;2.75;1.30;;;;;;;24.22;34.19;99868.72;10419783;28;20065;-78
2022/05/25 08:08:00;;;;;;;3.97;1.48;;;;;;;24.64;32.01;99868.13;10417925;28;20056;-78
2022/05/25 08:13:04;;;;;;;6.22;2.05;;;;;;;24.93;31.45;99859.31;10422766;28;20045;-78
2022/05/25 08:18:07;;;;;;;3.80;1.40;;;;;;;24.66;31.17;99860.75;10422972;28;20045;-78
2022/05/25 08:23:13;;;;;;;4.35;1.20;;;;;;;25.01;29.41;99856.53;10423668;28;20045;-79
2022/05/25 08:28:15;;;;;;;3.22;1.13;;;;;;;24.90;29.45;99857.00;10422406;28;20513;-78
2022/05/25 08:33:20;;;;;;;3.03;1.00;;;;;;;24.81;29.25;99853.63;10422307;28;20391;-78
2022/05/25 08:38:23;;;;;;;2.22;1.00;;;;;;;24.80;28.57;99856.44;10420026;28;20052;-78
2022/05/25 08:43:36;;;;;;;4.95;1.02;;;;;;;24.05;27.78;99848.44;10421078;28;20657;-78
2022/05/25 08:48:39;;;;;;;2.58;1.00;;;;;;;23.93;29.42;99860.56;10422574;28;20135;-78
2022/05/25 08:54:01;;;;;;;2.15;0.82;;;;;;;23.64;29.12;99856.94;10421894;28;20088;-78
2022/05/25 08:59:06;;;;;;;4.22;1.23;;;;;;;23.42;30.59;99858.56;10422533;28;20596;-78
2022/05/25 09:04:28;;;;;;;4.78;1.17;;;;;;;23.36;30.33;99851.22;10424615;28;20057;-78
2022/05/25 09:09:37;;;;;;;1.90;0.90;;;;;;;23.45;29.72;99855.56;10414242;28;20057;-78
2022/05/25 09:15:02;;;;;;;2.60;1.00;;;;;;;23.48;28.64;99853.38;10415951;28;20048;-78
2022/05/25 09:20:05;;;;;;;1.38;0.77;;;;;;;23.52;29.23;99843.16;10417718;28;20049;-78
2022/05/25 09:25:10;;;;;;;2.00;0.95;;;;;;;23.53;28.35;99858.19;10426254;28;20049;-78
2022/05/25 09:30:14;;;;;;;1.40;0.85;;;;;;;23.78;27.17;99856.19;10429162;28;20081;-78
2022/05/25 09:35:39;;;;;;;2.20;0.80;;;;;;;23.58;26.99;99857.63;10427193;28;20525;-78
2022/05/25 09:40:46;;;;;;;1.25;0.70;;;;;;;23.07;27.97;99857.22;10424606;28;20045;-78
2022/05/25 09:45:50;;;;;;;2.75;1.00;;;;;;;23.04;28.19;99859.41;10428961;28;20513;-78
2022/05/25 09:51:21;;;;;;;2.88;0.90;;;;;;;23.40;28.27;99865.91;10428215;28;20830;-77
2022/05/25 09:56:30;;;;;;;;;;;;;;;22.84;28.40;99858.16;10392354;28;20160;-78
2022/05/25 10:01:48;;;;;;;3.15;0.80;;;;;;;23.08;27.90;99853.56;10429519;28;19971;-78
2022/05/25 10:06:52;;;;;;;2.80;0.90;;;;;;;23.33;27.55;99860.41;10429118;28;20517;-77
2022/05/25 10:12:00;;;;;;;1.92;0.70;;;;;;;23.50;26.16;99855.84;10427328;28;20092;-77
2022/05/25 10:17:07;;;;;;;3.75;0.88;;;;;;;23.17;27.72;99857.00;10429536;28;20049;-78
2022/05/25 10:22:41;;;;;;;4.10;0.70;;;;;;;23.07;28.34;99856.38;10425554;28;20055;-78
2022/05/25 10:27:44;;;;;;;1.77;0.70;;;;;;;23.57;27.59;99847.97;10423451;28;20049;-78
2022/05/25 10:38:12;;;;;;;2.05;0.70;;;;;;;22.80;28.43;99846.16;10425956;28;20053;-78
2022/05/25 10:43:17;;;;;;;1.40;0.63;;;;;;;22.08;29.36;99855.06;10426793;28;20175;-77
2022/05/25 10:48:37;;;;;;;4.47;0.90;;;;;;;21.92;30.05;99852.38;10427552;28;21055;-77
2022/05/25 10:54:44;;;;;;;0.98;0.70;;;;;;;21.61;30.37;99850.34;10425329;28;20041;-78
2022/05/25 10:59:08;;;;;;;1.45;0.85;;;;;;;21.81;30.06;99857.03;10425682;28;20072;-77
2022/05/25 11:04:52;;;;;;;3.00;0.90;;;;;;;21.62;29.44;99854.66;10422567;28;20187;-77
2022/05/25 11:10:23;;;;;;;1.48;0.63;;;;;;;21.57;28.69;99867.63;10426035;28;20057;-76
2022/05/25 11:15:37;;;;;;;1.27;0.65;;;;;;;21.48;29.45;99862.44;10421376;28;20084;-76
2022/05/25 11:21:16;;;;;;;2.22;0.80;;;;;;;21.40;30.27;99870.41;10420191;28;20053;-76
2022/05/25 11:26:39;;;;;;;2.88;0.80;;;;;;;21.53;29.96;99870.78;10408964;28;20402;-76
2022/05/25 11:31:44;;;;;;;3.55;0.80;;;;;;;21.67;29.55;99856.84;10423081;28;20144;-76
2022/05/25 11:36:57;;;;;;;2.10;0.80;;;;;;;21.57;29.59;99851.66;10425295;28;20065;-76
2022/05/25 11:42:17;;;;;;;3.13;0.85;;;;;;;22.03;28.92;99847.56;10426570;28;20056;-76
2022/05/25 11:47:28;;;;;;;2.10;0.80;;;;;;;22.03;29.39;99846.69;10426851;28;20084;-76
2022/05/25 11:52:59;;;;;;;1.70;0.98;;;;;;;22.04;28.18;99838.59;10420179;28;20041;-77
2022/05/25 11:58:38;;;;;;;1.88;0.85;;;;;;;21.93;29.00;99838.88;10424440;28;20137;-77
2022/05/25 12:04:02;;;;;;;0.65;0.50;;;;;;;22.23;27.78;99846.22;10424257;28;20048;-77
2022/05/25 12:09:57;;;;;;;1.17;0.65;;;;;;;22.00;27.27;99850.56;10425172;28;20045;-76
2022/05/25 12:15:18;;;;;;;1.27;0.70;;;;;;;21.97;26.59;99840.22;10422960;28;20048;-75
2022/05/25 12:20:43;;;;;;;1.70;0.85;;;;;;;22.05;26.78;99847.44;10424337;28;20143;-75
2022/05/25 12:25:55;;;;;;;1.80;0.60;;;;;;;22.12;26.71;99846.59;10422557;28;20110;-77
2022/05/25 12:31:02;;;;;;;3.40;1.00;;;;;;;22.45;27.31;99837.53;10418724;28;20044;-77
2022/05/25 12:36:08;;;;;;;2.03;0.90;;;;;;;22.48;27.59;99850.53;10416386;28;20482;-77
2022/05/25 12:41:22;;;;;;;3.45;0.80;;;;;;;22.39;27.17;99848.88;10420015;28;20049;-77
2022/05/25 12:52:28;;;;;;;3.03;0.95;;;;;;;21.68;27.35;99853.19;10424688;28;20053;-77
2022/05/25 12:57:44;;;;;;;1.20;0.75;;;;;;;21.74;28.51;99847.22;10433008;28;20139;-77
2022/05/25 13:02:46;;;;;;;4.57;0.80;;;;;;;22.03;28.80;99850.22;10427932;28;20712;-77
2022/05/25 13:07:48;;;;;;;1.55;0.75;;;;;;;22.22;28.44;99852.56;10434005;28;20061;-77
2022/05/25 13:12:56;;;;;;;4.40;0.88;;;;;;;21.77;27.69;99853.03;10428332;28;20088;-77
2022/05/25 13:17:59;;;;;;;1.95;0.70;;;;;;;22.07;27.87;99848.91;10428667;28;20441;-77
2022/05/25 13:23:06;;;;;;;1.42;0.68;;;;;;;22.14;28.06;99843.75;10427811;28;20450;-76
2022/05/25 13:28:23;;;;;;;1.88;1.00;;;;;;;22.25;28.94;99836.22;10430717;28;20597;-77
2022/05/25 13:33:38;;;;;;;1.63;0.80;;;;;;;21.83;26.96;99848.88;10430345;28;20056;-76
2022/05/25 13:38:56;;;;;;;2.03;0.85;;;;;;;22.03;27.64;99847.56;10430321;28;20130;-76
2022/05/25 13:43:58;;;;;;;3.08;0.98;;;;;;;22.33;27.84;99843.41;10428549;28;20061;-76
2022/05/25 13:49:01;;;;;;;2.17;1.00;;;;;;;21.84;28.28;99839.91;10428941;28;20045;-76
2022/05/25 13:54:31;;;;;;;3.33;0.93;;;;;;;22.22;27.59;99828.59;10432065;28;20059;-77
2022/05/25 13:59:51;;;;;;;5.68;1.20;;;;;;;22.48;27.50;99833.69;10427584;28;20052;-76
2022/05/25 14:04:59;;;;;;;2.70;0.75;;;;;;;22.59;27.46;99833.34;10430421;28;20045;-75
2022/05/25 14:15:37;;;;;;;2.97;0.90;;;;;;;22.94;27.64;99837.44;10427860;28;20502;-76
2022/05/25 14:20:39;;;;;;;4.20;0.90;;;;;;;22.31;27.26;99845.41;10423620;28;20057;-76
2022/05/25 14:25:43;;;;;;;2.63;1.00;;;;;;;21.95;28.21;99849.34;10427606;28;20553;-76
2022/05/25 14:30:52;;;;;;;2.00;0.70;;;;;;;22.40;28.39;99836.38;10425199;28;20106;-76
2022/05/25 14:35:57;;;;;;;2.80;0.80;;;;;;;22.54;27.54;99836.53;10425677;28;20566;-76
2022/05/25 14:40:59;;;;;;;9.18;1.00;;;;;;;22.65;28.44;99838.00;10420227;28;20048;-76
2022/05/25 14:46:16;;;;;;;2.53;0.90;;;;;;;22.56;27.64;99847.00;10423390;28;20136;-76
2022/05/25 14:51:22;;;;;;;1.33;0.70;;;;;;;22.62;27.80;99844.50;10426954;28;20049;-76
2022/05/25 14:56:28;;;;;;;1.17;0.73;;;;;;;22.17;28.10;99844.22;10424593;28;20496;-76
2022/05/25 15:01:35;;;;;;;2.50;0.75;;;;;;;22.21;27.54;99845.56;10419496;28;20135;-76
2022/05/25 15:06:40;;;;;;;2.92;0.80;;;;;;;21.92;28.03;99850.56;10419167;28;20056;-76
2022/05/25 15:11:45;;;;;;;1.70;0.77;;;;;;;21.92;27.33;99841.72;10428228;28;20081;-76
2022/05/25 15:22:35;;;;;;;1.83;0.80;;;;;;;21.81;27.87;99840.22;10426964;28;20107;-76
2022/05/25 15:28:10;;;;;;;2.63;0.80;;;;;;;21.99;26.75;99856.00;10424711;28;20063;-76
2022/05/25 15:33:13;;;;;;;3.88;0.90;;;;;;;21.97;27.58;99845.53;10425926;28;20140;-76
2022/05/25 15:38:15;;;;;;;3.35;0.90;;;;;;;21.40;27.78;99854.44;10424553;28;20107;-76
2022/05/25 15:43:17;;;;;;;2.45;0.90;;;;;;;21.73;27.86;99848.19;10421981;28;20059;-76
2022/05/25 15:48:23;;;;;;;3.13;1.00;;;;;;;21.97;28.09;99860.69;10424241;28;20049;-76
2022/05/25 15:53:25;;;;;;;3.45;0.80;;;;;;;21.49;27.95;99861.47;10425285;28;20114;-76
2022/05/25 15:58:27;;;;;;;2.67;0.90;;;;;;;21.60;28.19;99866.44;10418573;28;20140;-77
2022/05/25 16:03:42;;;;;;;5.35;1.17;;;;;;;21.92;27.65;99863.88;10417486;28;20060;-76
2022/05/25 16:14:05;;;;;;;1.33;0.70;;;;;;;21.84;27.26;99855.88;10429167;28;20135;-77
2022/05/25 16:19:09;;;;;;;1.58;0.77;;;;;;;21.55;28.06;99856.31;10420473;28;20430;-77
2022/05/25 16:24:11;;;;;;;3.28;0.90;;;;;;;21.43;28.13;99862.13;10418121;28;20048;-77
2022/05/25 16:29:15;;;;;;;2.10;1.00;;;;;;;21.37;28.59;99860.09;10427125;28;20273;-76
2022/05/25 16:34:23;;;;;;;4.35;0.95;;;;;;;21.16;28.71;99862.31;10433360;28;20041;-77
2022/05/25 16:39:25;;;;;;;4.95;0.93;;;;;;;21.51;28.82;99864.78;10426431;28;20158;-77
2022/05/25 16:44:27;;;;;;;4.47;1.20;;;;;;;21.19;29.17;99860.19;10426092;28;20221;-76
2022/05/25 16:49:29;;;;;;;2.33;1.10;;;;;;;21.03;29.31;99868.91;10431334;28;20142;-76
2022/05/25 16:54:31;;;;;;;1.88;1.10;;;;;;;20.90;29.40;99870.34;10430867;28;20053;-76
2022/05/25 16:59:32;;;;;;;3.05;0.77;;;;;;;20.88;29.11;99873.19;10428241;28;20066;-76
2022/05/25 17:04:34;;;;;;;4.82;0.90;;;;;;;21.00;29.92;99874.56;10429006;28;20167;-76
2022/05/25 17:09:36;;;;;;;1.30;0.80;;;;;;;21.11;29.78;99872.63;10433267;28;20076;-77
2022/05/25 17:14:38;;;;;;;5.45;1.52;;;;;;;20.88;29.75;99869.69;10430043;28;20122;-76
2022/05/25 17:25:00;;;;;;;2.38;0.77;;;;;;;21.02;30.07;99871.75;10431067;28;20957;-77
2022/05/25 17:30:05;;;;;;;2.50;1.02;;;;;;;21.06;30.34;99887.22;10432989;28;20088;-77
2022/05/25 17:35:07;;;;;;;3.17;1.20;;;;;;;20.93;30.42;99881.50;10429542;28;20079;-76
2022/05/25 17:45:30;;;;;;;2.70;1.00;;;;;;;20.67;31.11;99901.13;10429676;28;20098;-77
2022/05/25 17:50:33;;;;;;;2.65;0.82;;;;;;;20.37;31.44;99906.84;10431036;28;20510;-77
2022/05/25 17:55:38;;;;;;;2.15;0.95;;;;;;;20.27;31.71;99904.28;10430365;28;20453;-77
2022/05/25 18:00:41;;;;;;;3.08;0.90;;;;;;;20.22;31.94;99917.19;10431272;28;20146;-76
2022/05/25 18:05:45;;;;;;;3.22;1.05;;;;;;;20.04;31.81;99919.88;10430533;28;20091;-77
2022/05/25 18:10:47;;;;;;;2.20;0.98;;;;;;;20.07;31.82;99924.03;10428189;28;20138;-77
2022/05/25 18:15:49;;;;;;;2.03;0.90;;;;;;;19.94;32.00;99929.72;10430442;28;20057;-77
2022/05/25 18:20:54;;;;;;;1.15;0.70;;;;;;;19.88;32.24;99935.63;10429414;28;20049;-77
2022/05/25 18:25:56;;;;;;;1.98;1.00;;;;;;;19.76;32.57;99939.47;10428074;28;20044;-77
2022/05/25 18:30:59;;;;;;;3.38;1.02;;;;;;;19.69;32.73;99940.19;10428477;28;20158;-77
2022/05/25 18:36:23;;;;;;;3.03;1.10;;;;;;;19.54;32.65;99941.69;10426084;28;20055;-77
2022/05/25 18:48:01;;;;;;;2.05;1.02;;;;;;;19.41;32.87;99936.72;10425416;28;20041;-76
2022/05/25 18:53:04;;;;;;;5.00;1.00;;;;;;;19.34;33.50;99940.94;10426708;28;21274;-75
2022/05/25 18:58:05;;;;;;;4.47;0.90;;;;;;;19.20;33.40;99941.44;10427300;28;20068;-75
2022/05/25 19:03:07;;;;;;;4.00;1.10;;;;;;;19.16;33.72;99946.19;10428544;28;20583;-75
2022/05/25 19:08:09;;;;;;;4.28;1.20;;;;;;;19.12;34.57;99952.75;10425537;28;20237;-75
2022/05/25 19:13:12;;;;;;;3.25;1.08;;;;;;;19.16;34.82;99959.44;10428825;28;20049;-75
2022/05/25 19:18:14;;;;;;;2.83;1.38;;;;;;;18.97;34.84;99970.06;10426792;28;20088;-75
2022/05/25 19:23:31;;;;;;;2.40;1.08;;;;;;;18.89;35.41;99977.91;10424999;28;20502;-75
2022/05/25 19:28:33;;;;;;;2.95;1.48;;;;;;;18.92;35.82;99982.94;10422995;28;20156;-77
2022/05/25 19:33:45;;;;;;;3.15;0.88;;;;;;;18.90;36.87;99984.91;10428754;28;20052;-78
2022/05/25 19:38:49;;;;;;;6.40;1.20;;;;;;;18.76;35.93;99990.63;10431459;28;20524;-78
2022/05/25 19:43:58;;;;;;;2.40;1.00;;;;;;;18.71;35.50;99998.16;10426469;28;20145;-78
2022/05/25 19:49:01;;;;;;;1.98;0.90;;;;;;;18.60;36.06;100000.97;10426255;28;20675;-78
2022/05/25 19:54:04;;;;;;;5.00;1.20;;;;;;;18.58;35.97;100008.22;10430258;28;20049;-78
2022/05/25 19:59:07;;;;;;;4.78;1.27;;;;;;;18.50;36.40;100024.81;10429284;28;20434;-78
2022/05/25 20:04:09;;;;;;;3.78;1.20;;;;;;;18.49;36.55;100030.25;10431854;28;20696;-78
2022/05/25 20:09:13;;;;;;;3.38;1.20;;;;;;;18.41;36.31;100036.25;10427106;28;20158;-78
2022/05/25 20:14:15;;;;;;;2.40;1.30;;;;;;;18.30;36.45;100040.84;10421819;28;20049;-78
2022/05/25 20:19:18;;;;;;;1.17;0.77;;;;;;;18.25;37.07;100043.91;10430411;28;20053;-77
2022/05/25 20:24:20;;;;;;;4.13;1.05;;;;;;;18.16;38.30;100049.13;10434428;28;20095;-79
2022/05/25 20:29:22;;;;;;;3.33;1.30;;;;;;;18.09;38.19;100048.88;10428343;28;20077;-79
2022/05/25 20:34:24;;;;;;;5.25;1.33;;;;;;;18.06;38.80;100058.88;10425385;28;20633;-79
2022/05/25 20:39:27;;;;;;;2.60;1.10;;;;;;;18.00;38.79;100054.97;10427832;28;20056;-78
2022/05/25 20:44:29;;;;;;;3.88;1.08;;;;;;;17.87;38.39;100064.13;10425355;28;20071;-78
2022/05/25 20:49:32;;;;;;;2.47;1.00;;;;;;;17.75;38.51;100064.22;10428346;28;20061;-80
2022/05/25 20:54:33;;;;;;;2.25;1.05;;;;;;;17.69;38.63;100067.38;10432114;28;21237;-79
2022/05/25 20:59:36;;;;;;;2.25;1.10;;;;;;;17.68;38.65;100071.03;10432784;28;20060;-78
2022/05/25 21:04:38;;;;;;;2.50;1.10;;;;;;;17.66;39.29;100080.06;10430451;28;20489;-78
2022/05/25 21:09:44;;;;;;;6.10;1.40;;;;;;;17.43;39.06;100082.03;10433968;28;20064;-79
2022/05/25 21:14:49;;;;;;;3.00;1.00;;;;;;;17.41;39.37;100089.25;10437691;28;20179;-79
2022/05/25 21:19:52;;;;;;;2.58;1.00;;;;;;;17.47;39.44;100087.88;10440491;28;20060;-78
2022/05/25 21:24:55;;;;;;;3.60;1.10;;;;;;;17.45;39.40;100095.97;10435009;28;20560;-78
2022/05/25 21:29:57;;;;;;;2.15;1.00;;;;;;;17.32;39.48;100094.47;10435386;28;20057;-78
2022/05/25 21:35:00;;;;;;;3.13;1.10;;;;;;;17.38;40.41;100088.69;10438908;28;20130;-77
2022/05/25 21:40:04;;;;;;;3.80;1.40;;;;;;;17.41;41.41;100093.69;10434732;28;20386;-78
2022/05/25 21:45:09;;;;;;;1.73;0.90;;;;;;;17.42;40.79;100090.94;10437188;28;20477;-78
2022/05/25 21:50:11;;;;;;;2.47;1.13;;;;;;;17.30;41.13;100075.25;10429545;28;20053;-78
2022/05/25 21:55:24;;;;;;;3.25;1.20;;;;;;;17.23;41.88;100092.59;10436170;28;20184;-78
2022/05/25 22:00:27;;;;;;;2.30;1.02;;;;;;;17.18;42.11;100085.03;10436123;28;20056;-78
2022/05/25 22:05:34;;;;;;;4.30;1.00;;;;;;;17.12;42.63;100100.59;10431850;28;20053;-79
2022/05/25 22:10:36;;;;;;;2.15;0.93;;;;;;;17.08;42.29;100096.53;10436764;28;20053;-79
2022/05/25 22:15:39;;;;;;;3.83;1.00;;;;;;;17.05;41.83;100102.91;10432437;28;20474;-79
2022/05/25 22:20:43;;;;;;;3.72;1.00;;;;;;;17.00;41.97;100105.94;10433064;28;20053;-79
2022/05/25 22:25:46;;;;;;;2.35;0.85;;;;;;;16.96;42.15;100103.66;10432736;28;20068;-79
2022/05/25 22:30:48;;;;;;;2.40;1.20;;;;;;;16.98;41.75;100112.31;10430798;28;20802;-78
2022/05/25 22:35:50;;;;;;;2.10;1.00;;;;;;;17.00;41.98;100110.38;10433526;28;20049;-78
2022/05/25 22:40:52;;;;;;;5.65;1.20;;;;;;;17.01;41.86;100110.28;10430592;28;20076;-78
2022/05/25 22:45:55;;;;;;;2.15;1.00;;;;;;;17.03;41.12;100118.06;10432504;28;20139;-80
2022/05/25 22:50:57;;;;;;;4.50;1.15;;;;;;;16.98;41.06;100102.59;10437211;28;20110;-81
2022/05/25 22:56:00;;;;;;;1.52;0.90;;;;;;;16.94;40.79;100113.53;10439984;28;20518;-80
2022/05/25 23:01:03;;;;;;;2.53;1.13;;;;;;;16.92;40.60;100108.38;10443526;28;20936;-81
2022/05/25 23:06:07;;;;;;;2.75;1.20;;;;;;;16.99;40.09;100100.78;10448665;28;20052;-80
2022/05/25 23:11:09;;;;;;;3.92;1.10;;;;;;;16.98;40.29;100093.81;10435541;28;20060;-80
2022/05/25 23:16:12;;;;;;;2.20;1.00;;;;;;;16.97;39.95;100105.34;10431729;28;20061;-81
2022/05/25 23:21:15;;;;;;;4.32;1.13;;;;;;;16.89;40.09;100110.44;10430297;28;20528;-79
2022/05/25 23:26:16;;;;;;;3.30;1.10;;;;;;;16.83;40.13;100113.59;10428028;28;20072;-79
2022/05/25 23:31:18;;;;;;;5.57;1.00;;;;;;;16.77;40.46;100124.66;10431224;28;20092;-81
2022/05/25 23:36:21;;;;;;;4.88;1.08;;;;;;;16.83;40.32;100118.88;10433376;28;20045;-81
2022/05/25 23:46:43;;;;;;;6.35;1.08;;;;;;;16.70;40.66;100121.69;10433220;28;20076;-81
2022/05/25 23:51:46;;;;;;;2.85;1.20;;;;;;;16.83;40.33;100124.16;10426708;28;20057;-81
2022/05/25 23:56:48;;;;;;;2.22;0.90;;;;;;;16.68;40.64;100117.47;10421749;28;20146;-81
